createdAt,value
2018-04-30T00:01:33.343Z,3.87
2018-04-30T00:04:01.612Z,2.73
2018-04-30T00:06:29.911Z,3.40
2018-04-30T00:08:58.215Z,3.00
2018-04-30T00:11:26.479Z,2.50
2018-04-30T00:13:54.847Z,3.13
2018-04-30T00:16:23.119Z,3.47
2018-04-30T00:18:50.703Z,3.00
2018-04-30T00:21:18.966Z,3.27
2018-04-30T00:23:47.231Z,3.63
2018-04-30T00:26:15.527Z,3.60
2018-04-30T00:28:43.804Z,3.53
2018-04-30T00:31:12.092Z,3.00
2018-04-30T00:33:40.458Z,3.23
2018-04-30T00:36:08.626Z,3.50
2018-04-30T00:38:36.898Z,3.17
2018-04-30T00:41:05.185Z,2.90
2018-04-30T00:43:33.443Z,3.00
2018-04-30T00:46:01.698Z,3.13
2018-04-30T00:48:29.978Z,3.10
2018-04-30T00:50:58.244Z,2.73
2018-04-30T00:53:26.502Z,3.10
2018-04-30T00:55:54.790Z,2.80
2018-04-30T00:58:23.058Z,2.53
2018-04-30T01:00:51.366Z,2.83
2018-04-30T01:03:19.643Z,3.20
2018-04-30T01:05:47.919Z,3.13
2018-04-30T01:08:16.197Z,3.13
2018-04-30T01:10:44.475Z,3.33
2018-04-30T01:13:12.742Z,3.30
2018-04-30T01:15:41.036Z,3.30
2018-04-30T01:18:09.324Z,3.83
2018-04-30T01:20:37.594Z,3.43
2018-04-30T01:23:05.854Z,2.93
2018-04-30T01:25:34.131Z,3.37
2018-04-30T01:28:02.404Z,3.83
2018-04-30T01:30:30.707Z,3.80
2018-04-30T01:32:58.992Z,3.40
2018-04-30T01:35:27.274Z,4.50
2018-04-30T01:37:55.535Z,3.67
2018-04-30T01:40:23.796Z,4.17
2018-04-30T01:42:52.835Z,4.13
2018-04-30T01:45:21.871Z,3.77
2018-04-30T01:47:50.137Z,4.00
2018-04-30T01:50:18.423Z,4.40
2018-04-30T01:52:46.710Z,4.10
2018-04-30T01:55:14.963Z,3.63
2018-04-30T01:57:43.240Z,3.60
2018-04-30T02:00:11.538Z,3.53
2018-04-30T02:02:39.854Z,4.13
2018-04-30T02:05:08.118Z,3.90
2018-04-30T02:07:36.413Z,4.10
2018-04-30T02:10:05.449Z,4.40
2018-04-30T02:12:33.713Z,3.70
2018-04-30T02:15:01.993Z,3.07
2018-04-30T02:17:30.263Z,3.90
2018-04-30T02:19:58.567Z,4.17
2018-04-30T02:22:26.844Z,3.83
2018-04-30T02:24:55.107Z,3.30
2018-04-30T02:27:23.378Z,3.67
2018-04-30T02:29:51.686Z,3.27
2018-04-30T02:32:19.958Z,3.43
2018-04-30T02:34:48.252Z,3.60
2018-04-30T02:37:16.550Z,4.60
2018-04-30T02:39:45.590Z,3.87
2018-04-30T02:42:13.857Z,3.93
2018-04-30T02:44:42.131Z,3.77
2018-04-30T02:47:10.400Z,4.00
2018-04-30T02:49:38.659Z,5.43
2018-04-30T02:52:07.695Z,3.67
2018-04-30T02:54:35.959Z,3.27
2018-04-30T02:57:04.234Z,3.80
2018-04-30T02:59:32.503Z,4.03
2018-04-30T03:02:00.788Z,4.07
2018-04-30T03:04:29.047Z,3.20
2018-04-30T03:07:03.212Z,3.60
2018-04-30T03:09:31.479Z,3.83
2018-04-30T03:11:59.747Z,4.00
2018-04-30T03:14:28.031Z,3.80
2018-04-30T03:16:56.291Z,4.60
2018-04-30T03:19:24.554Z,3.95
2018-04-30T03:21:52.832Z,4.47
2018-04-30T03:24:21.092Z,5.50
2018-04-30T03:26:49.363Z,5.03
2018-04-30T03:29:17.643Z,4.10
2018-04-30T03:31:45.902Z,4.57
2018-04-30T03:34:14.946Z,4.80
2018-04-30T03:36:43.244Z,4.80
2018-04-30T03:39:11.488Z,4.83
2018-04-30T03:41:39.760Z,4.57
2018-04-30T03:44:08.030Z,5.63
2018-04-30T03:46:36.276Z,5.30
2018-04-30T03:49:05.324Z,6.30
2018-04-30T03:51:33.618Z,6.50
2018-04-30T03:54:01.959Z,8.30
2018-04-30T03:56:30.223Z,8.83
2018-04-30T03:58:58.486Z,8.77
2018-04-30T04:01:44.583Z,10.40
2018-04-30T04:07:27.339Z,10.97
2018-04-30T04:09:55.659Z,11.82
2018-04-30T04:12:23.933Z,10.30
2018-04-30T04:14:52.204Z,9.90
2018-04-30T04:17:20.565Z,9.57
2018-04-30T04:19:48.953Z,10.63
2018-04-30T04:22:17.231Z,9.70
2018-04-30T04:24:45.489Z,9.60
2018-04-30T04:27:13.855Z,9.97
2018-04-30T04:29:42.116Z,4.60
2018-04-30T04:32:10.394Z,2.50
2018-04-30T04:34:38.702Z,2.03
2018-04-30T04:37:06.979Z,1.50
2018-04-30T04:39:35.246Z,1.00
2018-04-30T04:42:03.519Z,0.60
2018-04-30T04:44:31.891Z,0.53
2018-04-30T04:47:00.162Z,0.40
2018-04-30T04:49:28.550Z,0.50
2018-04-30T04:51:56.822Z,0.43
2018-04-30T04:54:25.093Z,0.43
2018-04-30T04:56:53.359Z,0.40
2018-04-30T04:59:21.651Z,0.40
2018-04-30T05:01:49.935Z,0.40
2018-04-30T05:04:18.246Z,0.50
2018-04-30T05:06:46.596Z,0.40
2018-04-30T05:09:14.866Z,0.30
2018-04-30T05:11:43.143Z,0.30
2018-04-30T05:14:11.447Z,0.30
2018-04-30T05:16:39.706Z,0.40
2018-04-30T05:19:08.079Z,0.50
2018-04-30T05:21:36.351Z,0.70
2018-04-30T05:24:04.619Z,0.30
2018-04-30T05:26:32.995Z,0.40
2018-04-30T05:29:01.257Z,0.40
2018-04-30T05:31:29.654Z,0.30
2018-04-30T05:33:58.010Z,0.40
2018-04-30T05:36:26.206Z,0.40
2018-04-30T05:38:54.473Z,0.50
2018-04-30T05:41:22.727Z,0.50
2018-04-30T05:43:51.779Z,0.43
2018-04-30T05:46:20.056Z,0.50
2018-04-30T05:48:48.338Z,0.40
2018-04-30T05:51:16.607Z,0.40
2018-04-30T05:53:44.907Z,0.40
2018-04-30T05:56:13.162Z,0.40
2018-04-30T05:58:41.452Z,0.30
2018-04-30T06:01:09.730Z,0.30
2018-04-30T06:03:37.995Z,0.30
2018-04-30T06:06:06.276Z,0.33
2018-04-30T06:08:34.543Z,0.50
2018-04-30T06:11:02.806Z,0.23
2018-04-30T06:13:31.172Z,0.50
2018-04-30T06:15:59.432Z,0.20
2018-04-30T06:18:27.706Z,0.33
2018-04-30T06:20:55.971Z,0.50
2018-04-30T06:23:25.003Z,0.37
2018-04-30T06:25:53.283Z,0.40
2018-04-30T06:28:23.089Z,0.30
2018-04-30T06:30:51.371Z,0.33
2018-04-30T06:33:19.641Z,0.33
2018-04-30T06:35:47.962Z,0.40
2018-04-30T06:38:16.170Z,0.50
2018-04-30T06:40:44.430Z,0.60
2018-04-30T06:43:13.486Z,0.53
2018-04-30T06:45:41.746Z,0.30
2018-04-30T06:48:10.007Z,0.40
2018-04-30T06:50:38.294Z,0.50
2018-04-30T06:53:06.561Z,0.30
2018-04-30T06:55:34.936Z,0.40
2018-04-30T06:58:03.198Z,0.40
2018-04-30T07:00:31.467Z,0.47
2018-04-30T07:03:00.494Z,0.23
2018-04-30T07:05:28.758Z,0.40
2018-04-30T07:07:57.054Z,0.40
2018-04-30T07:10:25.429Z,0.40
2018-04-30T07:12:54.616Z,0.57
2018-04-30T07:15:22.874Z,0.50
2018-04-30T07:17:51.170Z,0.50
2018-04-30T07:20:19.549Z,0.50
2018-04-30T07:22:47.798Z,0.40
2018-04-30T07:25:16.074Z,0.50
2018-04-30T07:27:44.401Z,0.50
2018-04-30T07:30:13.391Z,0.40
2018-04-30T07:32:41.659Z,0.37
2018-04-30T07:35:09.947Z,0.60
2018-04-30T07:37:38.297Z,0.50
2018-04-30T07:40:06.571Z,0.50
2018-04-30T07:42:35.671Z,0.50
2018-04-30T07:45:03.922Z,0.47
2018-04-30T07:47:32.226Z,0.60
2018-04-30T07:50:00.487Z,1.00
2018-04-30T07:52:28.746Z,0.40
2018-04-30T07:54:57.786Z,0.30
2018-04-30T07:57:26.141Z,0.27
2018-04-30T07:59:54.530Z,0.40
2018-04-30T08:02:22.798Z,0.87
2018-04-30T08:04:51.070Z,0.40
2018-04-30T08:07:19.456Z,0.50
2018-04-30T08:09:47.732Z,0.40
2018-04-30T08:12:16.010Z,0.50
2018-04-30T08:14:44.289Z,0.47
2018-04-30T08:17:13.534Z,0.40
2018-04-30T08:19:41.858Z,0.50
2018-04-30T08:22:10.138Z,0.40
2018-04-30T08:24:38.418Z,1.10
2018-04-30T08:27:06.679Z,2.07
2018-04-30T08:29:34.943Z,0.40
2018-04-30T08:32:04.047Z,0.40
2018-04-30T08:34:32.327Z,0.50
2018-04-30T08:37:00.615Z,0.50
2018-04-30T08:39:28.894Z,0.37
2018-04-30T08:41:57.182Z,0.30
2018-04-30T08:44:25.465Z,0.57
2018-04-30T08:46:53.723Z,0.53
2018-04-30T08:49:21.985Z,0.30
2018-04-30T08:51:50.278Z,0.50
2018-04-30T08:54:18.534Z,0.30
2018-04-30T08:56:46.821Z,0.50
2018-04-30T08:59:15.083Z,0.47
2018-04-30T09:01:43.404Z,0.30
2018-04-30T09:04:11.662Z,0.50
2018-04-30T09:06:39.922Z,0.67
2018-04-30T09:09:08.303Z,0.40
2018-04-30T09:11:36.563Z,0.40
2018-04-30T09:14:04.846Z,0.50
2018-04-30T09:16:33.117Z,0.50
2018-04-30T09:19:01.415Z,0.40
2018-04-30T09:21:29.705Z,0.60
2018-04-30T09:23:57.971Z,0.33
2018-04-30T09:26:26.229Z,0.53
2018-04-30T09:28:54.503Z,0.20
2018-04-30T09:31:22.772Z,0.47
2018-04-30T09:33:51.890Z,0.40
2018-04-30T09:36:20.157Z,0.50
2018-04-30T09:38:48.613Z,0.30
2018-04-30T09:41:17.735Z,0.40
2018-04-30T09:43:45.994Z,0.50
2018-04-30T09:46:15.047Z,0.37
2018-04-30T09:48:43.310Z,0.40
2018-04-30T09:51:11.563Z,0.23
2018-04-30T09:53:39.839Z,0.27
2018-04-30T09:56:08.116Z,0.40
2018-04-30T09:58:37.748Z,0.30
2018-04-30T10:01:05.998Z,0.30
2018-04-30T10:03:34.280Z,0.30
2018-04-30T10:06:02.535Z,0.30
2018-04-30T10:08:30.832Z,0.30
2018-04-30T10:10:59.112Z,0.20
2018-04-30T10:13:27.385Z,0.30
2018-04-30T10:15:55.660Z,0.20
2018-04-30T10:18:23.941Z,0.30
2018-04-30T10:20:52.236Z,0.30
2018-04-30T10:23:20.546Z,0.20
2018-04-30T10:25:48.792Z,0.40
2018-04-30T10:28:17.079Z,0.30
2018-04-30T10:30:45.415Z,0.47
2018-04-30T10:33:13.711Z,0.40
2018-04-30T10:35:42.074Z,0.20
2018-04-30T10:38:10.331Z,0.87
2018-04-30T10:40:38.657Z,0.30
2018-04-30T10:43:06.939Z,0.30
2018-04-30T10:45:35.279Z,0.32
2018-04-30T10:48:03.558Z,0.30
2018-04-30T10:50:31.819Z,0.30
2018-04-30T10:53:00.107Z,0.20
2018-04-30T10:55:28.370Z,0.50
2018-04-30T10:57:56.642Z,0.33
2018-04-30T11:00:24.912Z,0.30
2018-04-30T11:02:53.927Z,0.20
2018-04-30T11:05:22.206Z,0.20
2018-04-30T11:07:51.079Z,0.20
2018-04-30T11:10:19.372Z,0.30
2018-04-30T11:12:47.622Z,0.23
2018-04-30T11:15:16.668Z,0.20
2018-04-30T11:17:44.917Z,0.40
2018-04-30T11:20:13.184Z,0.30
2018-04-30T11:22:41.461Z,0.23
2018-04-30T11:25:09.727Z,0.20
2018-04-30T11:27:38.152Z,0.30
2018-04-30T11:30:06.399Z,0.30
2018-04-30T11:32:34.666Z,0.30
2018-04-30T11:35:02.950Z,0.20
2018-04-30T11:37:31.210Z,0.40
2018-04-30T11:39:59.526Z,0.60
2018-04-30T11:42:27.770Z,0.30
2018-04-30T11:44:56.101Z,0.33
2018-04-30T11:47:24.392Z,0.40
2018-04-30T11:49:53.425Z,0.37
2018-04-30T11:52:21.703Z,0.30
2018-04-30T11:54:49.971Z,0.30
2018-04-30T11:57:18.227Z,0.30
2018-04-30T11:59:47.276Z,0.30
2018-04-30T12:02:15.563Z,0.30
2018-04-30T12:04:43.940Z,0.30
2018-04-30T12:07:12.208Z,0.30
2018-04-30T12:09:40.491Z,0.40
2018-04-30T12:12:08.788Z,0.30
2018-04-30T12:14:37.115Z,0.30
2018-04-30T12:17:05.390Z,0.20
2018-04-30T12:19:33.672Z,0.20
2018-04-30T12:22:02.013Z,0.20
2018-04-30T12:24:30.209Z,0.20
2018-04-30T12:26:58.491Z,0.20
2018-04-30T12:29:26.766Z,0.20
2018-04-30T12:31:55.031Z,0.50
2018-04-30T12:34:23.311Z,0.40
2018-04-30T12:36:51.570Z,0.50
2018-04-30T12:39:20.698Z,0.40
2018-04-30T12:41:49.079Z,0.40
2018-04-30T12:44:17.361Z,0.30
2018-04-30T12:46:45.654Z,0.30
2018-04-30T12:49:13.947Z,0.23
2018-04-30T12:51:42.213Z,0.30
2018-04-30T12:54:10.487Z,0.20
2018-04-30T12:56:38.763Z,0.30
2018-04-30T12:59:07.040Z,0.30
2018-04-30T13:01:35.332Z,0.20
2018-04-30T13:04:03.641Z,0.40
2018-04-30T13:06:31.910Z,0.37
2018-04-30T13:09:00.985Z,0.30
2018-04-30T13:11:29.243Z,0.27
2018-04-30T13:13:57.577Z,0.30
2018-04-30T13:16:25.846Z,0.30
2018-04-30T13:18:54.142Z,0.30
2018-04-30T13:21:22.411Z,0.30
2018-04-30T13:23:50.682Z,0.50
2018-04-30T13:26:18.951Z,0.40
2018-04-30T13:28:47.216Z,0.40
2018-04-30T13:31:16.243Z,0.20
2018-04-30T13:33:44.520Z,0.20
2018-04-30T13:36:12.784Z,0.40
2018-04-30T13:38:41.177Z,0.33
2018-04-30T13:41:09.455Z,0.60
2018-04-30T13:43:37.786Z,0.30
2018-04-30T13:46:05.986Z,0.30
2018-04-30T13:48:34.263Z,0.40
2018-04-30T13:51:02.527Z,0.30
2018-04-30T13:53:31.556Z,0.30
2018-04-30T13:55:59.839Z,0.30
2018-04-30T13:58:28.200Z,0.27
2018-04-30T14:00:56.459Z,0.20
2018-04-30T14:03:24.755Z,0.30
2018-04-30T14:05:53.014Z,0.50
2018-04-30T14:08:21.268Z,0.30
2018-04-30T14:10:50.319Z,0.30
2018-04-30T14:13:18.587Z,0.30
2018-04-30T14:15:46.863Z,0.30
2018-04-30T14:18:15.224Z,0.20
2018-04-30T14:20:43.491Z,0.43
2018-04-30T14:23:11.754Z,0.50
2018-04-30T14:25:40.836Z,0.50
2018-04-30T14:28:09.095Z,0.50
2018-04-30T14:30:37.399Z,0.20
2018-04-30T14:33:06.458Z,0.30
2018-04-30T14:35:34.819Z,0.30
2018-04-30T14:38:03.075Z,0.30
2018-04-30T14:40:31.377Z,1.37
2018-04-30T14:42:59.671Z,0.20
2018-04-30T14:45:27.931Z,0.30
2018-04-30T14:47:56.207Z,0.27
2018-04-30T14:50:24.475Z,0.30
2018-04-30T14:52:52.740Z,0.40
2018-04-30T14:55:21.026Z,0.17
2018-04-30T14:57:49.286Z,0.40
2018-04-30T15:00:17.550Z,0.43
2018-04-30T15:02:45.836Z,0.20
2018-04-30T15:05:14.119Z,0.40
2018-04-30T15:07:42.395Z,0.50
2018-04-30T15:10:10.726Z,0.23
2018-04-30T15:12:38.984Z,0.27
2018-04-30T15:15:07.330Z,0.30
2018-04-30T15:17:35.600Z,0.50
2018-04-30T15:20:03.910Z,0.20
2018-04-30T15:22:32.178Z,0.40
2018-04-30T15:25:00.535Z,0.40
2018-04-30T15:27:28.812Z,0.40
2018-04-30T15:29:57.085Z,0.20
2018-04-30T15:32:25.363Z,0.57
2018-04-30T15:34:53.634Z,0.40
2018-04-30T15:37:21.904Z,0.20
2018-04-30T15:39:50.188Z,0.30
2018-04-30T15:42:18.449Z,0.20
2018-04-30T15:44:46.763Z,1.13
2018-04-30T15:47:15.122Z,0.30
2018-04-30T15:49:43.406Z,0.60
2018-04-30T15:52:11.674Z,0.30
2018-04-30T15:54:39.961Z,0.47
2018-04-30T15:57:08.222Z,1.30
2018-04-30T15:59:36.484Z,0.43
2018-04-30T16:02:04.773Z,0.50
2018-04-30T16:04:33.054Z,0.30
2018-04-30T16:07:01.331Z,0.30
2018-04-30T16:09:29.620Z,0.40
2018-04-30T16:11:57.979Z,0.20
2018-04-30T16:14:26.268Z,0.77
2018-04-30T16:16:54.531Z,0.30
2018-04-30T16:19:22.793Z,0.30
2018-04-30T16:21:51.933Z,0.30
2018-04-30T16:24:20.207Z,0.27
2018-04-30T16:26:48.663Z,0.30
2018-04-30T16:29:16.936Z,0.30
2018-04-30T16:31:45.206Z,0.60
2018-04-30T16:34:13.473Z,0.30
2018-04-30T16:36:42.500Z,0.40
2018-04-30T16:39:10.871Z,0.30
2018-04-30T16:41:39.130Z,0.30
2018-04-30T16:44:07.402Z,0.43
2018-04-30T16:46:35.692Z,0.50
2018-04-30T16:49:03.955Z,0.87
2018-04-30T16:51:32.230Z,0.60
2018-04-30T16:54:00.523Z,1.23
2018-04-30T16:56:28.805Z,0.47
2018-04-30T16:58:57.065Z,0.33
2018-04-30T17:01:25.348Z,0.40
2018-04-30T17:03:53.609Z,0.40
2018-04-30T17:06:23.239Z,0.23
2018-04-30T17:08:51.619Z,0.40
2018-04-30T17:11:19.896Z,0.30
2018-04-30T17:13:48.171Z,0.20
2018-04-30T17:16:16.550Z,0.20
2018-04-30T17:18:44.840Z,0.20
2018-04-30T17:21:13.165Z,0.27
2018-04-30T17:23:41.448Z,0.20
2018-04-30T17:26:09.738Z,0.30
2018-04-30T17:28:38.023Z,0.30
2018-04-30T17:31:06.307Z,0.20
2018-04-30T17:33:34.592Z,0.30
2018-04-30T17:36:02.879Z,0.30
2018-04-30T17:38:31.240Z,0.20
2018-04-30T17:40:59.555Z,0.20
2018-04-30T17:43:27.791Z,0.23
2018-04-30T17:45:56.072Z,0.20
2018-04-30T17:48:24.333Z,0.30
2018-04-30T17:50:52.619Z,0.30
2018-04-30T17:53:20.924Z,0.40
2018-04-30T17:55:49.223Z,0.40
2018-04-30T17:58:17.492Z,0.20
2018-04-30T18:00:45.846Z,0.40
2018-04-30T18:03:14.127Z,0.23
2018-04-30T18:05:42.412Z,0.60
2018-04-30T18:08:10.772Z,0.30
2018-04-30T18:10:39.144Z,0.30
2018-04-30T18:13:07.500Z,0.30
2018-04-30T18:15:36.546Z,0.30
2018-04-30T18:18:04.814Z,0.37
2018-04-30T18:20:33.078Z,0.23
2018-04-30T18:23:02.276Z,0.30
2018-04-30T18:25:30.550Z,0.20
2018-04-30T18:27:58.871Z,0.40
2018-04-30T18:30:27.171Z,0.40
2018-04-30T18:32:55.472Z,0.30
2018-04-30T18:35:23.800Z,0.33
2018-04-30T18:37:52.088Z,0.20
2018-04-30T18:40:21.180Z,0.30
2018-04-30T18:42:50.495Z,0.37
2018-04-30T18:45:19.108Z,0.40
2018-04-30T18:47:48.435Z,0.40
2018-04-30T18:50:17.824Z,0.60
2018-04-30T18:52:46.694Z,0.40
2018-04-30T18:55:16.291Z,0.70
2018-04-30T18:57:45.483Z,1.30
2018-04-30T19:00:13.880Z,0.80
2018-04-30T19:02:43.267Z,0.77
2018-04-30T19:05:12.951Z,0.90
2018-04-30T19:07:42.840Z,0.60
2018-04-30T19:10:12.608Z,5.25
2018-04-30T19:12:43.448Z,0.40
2018-04-30T19:15:14.070Z,0.30
2018-04-30T19:17:44.798Z,0.60
2018-04-30T19:20:14.599Z,0.30
2018-04-30T19:22:44.743Z,0.30
2018-04-30T19:25:15.398Z,0.30
2018-04-30T19:27:45.513Z,0.30
2018-04-30T19:30:15.355Z,0.30
2018-04-30T19:32:45.327Z,0.43
2018-04-30T19:35:16.948Z,0.33
2018-04-30T19:37:46.980Z,0.83
2018-04-30T19:40:16.929Z,0.87
2018-04-30T19:42:47.816Z,0.50
2018-04-30T19:45:17.610Z,0.50
2018-04-30T19:47:47.699Z,0.43
2018-04-30T19:50:17.514Z,0.63
2018-04-30T19:52:47.454Z,0.67
2018-04-30T19:55:17.137Z,0.33
2018-04-30T19:57:47.183Z,0.50
2018-04-30T20:00:17.031Z,0.50
2018-04-30T20:02:47.004Z,0.63
2018-04-30T20:05:16.875Z,0.53
2018-04-30T20:07:47.635Z,0.33
2018-04-30T20:10:17.693Z,0.97
2018-04-30T20:12:47.632Z,0.57
2018-04-30T20:15:18.141Z,0.73
2018-04-30T20:17:48.293Z,0.40
2018-04-30T20:20:18.957Z,0.20
2018-04-30T20:22:49.028Z,0.40
2018-04-30T20:25:18.878Z,0.50
2018-04-30T20:27:49.041Z,0.27
2018-04-30T20:30:19.051Z,0.30
2018-04-30T20:32:48.925Z,0.93
2018-04-30T20:35:18.945Z,1.07
2018-04-30T20:37:48.268Z,0.50
2018-04-30T20:40:17.688Z,0.43
2018-04-30T20:42:47.118Z,0.40
2018-04-30T20:45:17.929Z,0.50
2018-04-30T20:47:47.869Z,0.30
2018-04-30T20:50:17.944Z,0.50
2018-04-30T20:52:47.742Z,0.40
2018-04-30T20:55:17.504Z,1.17
2018-04-30T20:57:47.395Z,0.40
2018-04-30T21:00:17.111Z,0.57
2018-04-30T21:02:47.069Z,0.50
2018-04-30T21:05:17.645Z,0.33
2018-04-30T21:07:47.715Z,0.40
2018-04-30T21:10:17.847Z,0.30
2018-04-30T21:12:47.345Z,0.33
2018-04-30T21:15:16.027Z,0.30
2018-04-30T21:17:44.617Z,0.33
2018-04-30T21:20:13.841Z,0.30
2018-04-30T21:22:42.993Z,0.50
2018-04-30T21:25:11.306Z,0.47
2018-04-30T21:27:39.616Z,0.40
2018-04-30T21:30:08.704Z,0.30
2018-04-30T21:32:36.955Z,0.30
2018-04-30T21:35:05.231Z,0.20
2018-04-30T21:37:33.510Z,1.23
2018-04-30T21:40:01.878Z,0.30
2018-04-30T21:42:30.084Z,0.30
2018-04-30T21:44:58.347Z,0.30
2018-04-30T21:47:26.690Z,0.33
2018-04-30T21:49:54.967Z,0.40
2018-04-30T21:52:23.227Z,0.20
2018-04-30T21:54:51.506Z,0.30
2018-04-30T21:57:19.802Z,0.20
2018-04-30T21:59:48.070Z,0.20
2018-04-30T22:02:16.454Z,0.27
2018-04-30T22:04:44.719Z,0.20
2018-04-30T22:07:12.976Z,0.20
2018-04-30T22:09:42.017Z,0.20
2018-04-30T22:12:10.454Z,0.20
2018-04-30T22:14:38.648Z,0.20
2018-04-30T22:17:06.950Z,0.30
2018-04-30T22:19:35.295Z,0.30
2018-04-30T22:22:03.562Z,0.30
2018-04-30T22:24:32.683Z,0.20
2018-04-30T22:27:00.939Z,0.20
2018-04-30T22:29:29.202Z,0.20
2018-04-30T22:31:58.331Z,0.20
2018-04-30T22:34:26.598Z,0.20
2018-04-30T22:36:55.029Z,0.20
2018-04-30T22:39:23.164Z,0.30
2018-04-30T22:41:51.435Z,0.10
2018-04-30T22:44:19.776Z,0.20
2018-04-30T22:46:48.822Z,0.20
2018-04-30T22:49:17.106Z,0.30
2018-04-30T22:51:45.370Z,0.27
2018-04-30T22:54:13.739Z,0.20
2018-04-30T22:56:42.021Z,0.17
2018-04-30T22:59:11.419Z,0.20
2018-04-30T23:01:39.694Z,0.20
2018-04-30T23:04:07.978Z,1.50
2018-04-30T23:06:36.240Z,0.20
2018-04-30T23:09:04.507Z,0.20
2018-04-30T23:11:32.776Z,0.30
2018-04-30T23:14:01.793Z,0.10
2018-04-30T23:16:30.179Z,0.20
2018-04-30T23:18:58.435Z,0.20
2018-04-30T23:21:26.706Z,0.20
2018-04-30T23:23:55.813Z,0.20
2018-04-30T23:26:24.066Z,0.20
2018-04-30T23:28:53.084Z,0.30
2018-04-30T23:31:21.362Z,0.20
2018-04-30T23:33:49.642Z,0.20
2018-04-30T23:36:17.914Z,0.20
2018-04-30T23:38:46.166Z,0.30
2018-04-30T23:41:15.214Z,0.10
2018-04-30T23:43:43.532Z,0.10
2018-04-30T23:46:11.729Z,0.17
2018-04-30T23:48:40.018Z,0.20
2018-04-30T23:51:08.273Z,0.30
2018-04-30T23:53:37.382Z,0.20
2018-04-30T23:56:05.663Z,0.20
2018-04-30T23:58:33.935Z,0.20
